地図

経路データ

SID SEASON NUMBER BASIN SUBBASIN NAME ISO_TIME NATURE LAT LON WMO_WIND WMO_PRES WMO_AGENCY TRACK_TYPE DIST2LAND LANDFALL IFLAG USA_AGENCY USA_ATCF_ID USA_LAT USA_LON USA_RECORD USA_STATUS USA_WIND USA_PRES USA_SSHS USA_R34_NE USA_R34_SE USA_R34_SW USA_R34_NW USA_R50_NE USA_R50_SE USA_R50_SW USA_R50_NW USA_R64_NE USA_R64_SE USA_R64_SW USA_R64_NW USA_POCI USA_ROCI USA_RMW USA_EYE TOKYO_LAT TOKYO_LON TOKYO_GRADE TOKYO_WIND TOKYO_PRES TOKYO_R50_DIR TOKYO_R50_LONG TOKYO_R50_SHORT TOKYO_R30_DIR TOKYO_R30_LONG TOKYO_R30_SHORT TOKYO_LAND CMA_LAT CMA_LON CMA_CAT CMA_WIND CMA_PRES HKO_LAT HKO_LON HKO_CAT HKO_WIND HKO_PRES NEWDELHI_LAT NEWDELHI_LON NEWDELHI_GRADE NEWDELHI_WIND NEWDELHI_PRES NEWDELHI_CI NEWDELHI_DP NEWDELHI_POCI REUNION_LAT REUNION_LON REUNION_TYPE REUNION_WIND REUNION_PRES REUNION_TNUM REUNION_CI REUNION_RMW REUNION_R34_NE REUNION_R34_SE REUNION_R34_SW REUNION_R34_NW REUNION_R50_NE REUNION_R50_SE REUNION_R50_SW REUNION_R50_NW REUNION_R64_NE REUNION_R64_SE REUNION_R64_SW REUNION_R64_NW BOM_LAT BOM_LON BOM_TYPE BOM_WIND BOM_PRES BOM_TNUM BOM_CI BOM_RMW BOM_R34_NE BOM_R34_SE BOM_R34_SW BOM_R34_NW BOM_R50_NE BOM_R50_SE BOM_R50_SW BOM_R50_NW BOM_R64_NE BOM_R64_SE BOM_R64_SW BOM_R64_NW BOM_ROCI BOM_POCI BOM_EYE BOM_POS_METHOD BOM_PRES_METHOD NADI_LAT NADI_LON NADI_CAT NADI_WIND NADI_PRES WELLINGTON_LAT WELLINGTON_LON WELLINGTON_WIND WELLINGTON_PRES DS824_LAT DS824_LON DS824_STAGE DS824_WIND DS824_PRES TD9636_LAT TD9636_LON TD9636_STAGE TD9636_WIND TD9636_PRES TD9635_LAT TD9635_LON TD9635_WIND TD9635_PRES TD9635_ROCI NEUMANN_LAT NEUMANN_LON NEUMANN_CLASS NEUMANN_WIND NEUMANN_PRES MLC_LAT MLC_LON MLC_CLASS MLC_WIND MLC_PRES USA_GUST BOM_GUST BOM_GUST_PER REUNION_GUST REUNION_GUST_PER USA_SEAHGT USA_SEARAD_NE USA_SEARAD_SE USA_SEARAD_SW USA_SEARAD_NW STORM_SPEED STORM_DIR
1941057S08185 1941 14 SP MM NOT_NAMED 1941-02-26 00:00:00 NR -8.00000 -175.200 main 669 654 __________O___ -1 -8.00000 -175.200 2 3 130
1941057S08185 1941 14 SP MM NOT_NAMED 1941-02-26 03:00:00 NR -8.11098 -175.067 main 654 636 __________P___ -1 -8.11098 -175.067 2 3 130
1941057S08185 1941 14 SP MM NOT_NAMED 1941-02-26 06:00:00 NR -8.21755 -174.938 main 636 622 __________P___ -1 -8.21755 -174.938 2 3 129
1941057S08185 1941 14 SP MM NOT_NAMED 1941-02-26 09:00:00 NR -8.31534 -174.814 main 622 607 __________P___ -1 -8.31534 -174.814 2 3 128
1941057S08185 1941 14 SP MM NOT_NAMED 1941-02-26 12:00:00 NR -8.40000 -174.700 main 607 593 __________O___ -1 -8.40000 -174.700 2 3 126
1941057S08185 1941 14 SP MM NOT_NAMED 1941-02-26 15:00:00 NR -8.46997 -174.597 main 593 589 __________P___ -1 -8.46997 -174.597 2 2 124
1941057S08185 1941 14 SP MM NOT_NAMED 1941-02-26 18:00:00 NR -8.53497 -174.500 main 589 575 __________P___ -1 -8.53497 -174.500 2 2 126
1941057S08185 1941 14 SP MM NOT_NAMED 1941-02-26 21:00:00 NR -8.60747 -174.403 main 575 561 __________P___ -1 -8.60747 -174.403 2 3 130
1941057S08185 1941 14 SP MM NOT_NAMED 1941-02-27 00:00:00 NR -8.70000 -174.300 main 561 548 __________O___ -1 -8.70000 -174.300 2 3 136
1941057S08185 1941 14 SP MM NOT_NAMED 1941-02-27 03:00:00 NR -8.82844 -174.182 main 548 523 __________P___ -1 -8.82844 -174.182 2 4 139
1941057S08185 1941 14 SP MM NOT_NAMED 1941-02-27 06:00:00 NR -8.97750 -174.058 main 523 507 __________P___ -1 -8.97750 -174.058 2 4 141
1941057S08185 1941 14 SP MM NOT_NAMED 1941-02-27 09:00:00 NR -9.13781 -173.929 main 507 482 __________P___ -1 -9.13781 -173.929 2 4 142
1941057S08185 1941 14 SP MM NOT_NAMED 1941-02-27 12:00:00 NR -9.30000 -173.800 main 482 469 __________O___ -1 -9.30000 -173.800 2 4 140
1941057S08185 1941 14 SP MM NOT_NAMED 1941-02-27 15:00:00 NR -9.42967 -173.679 main 469 445 __________P___ -1 -9.42967 -173.679 2 4 137
1941057S08185 1941 14 SP MM NOT_NAMED 1941-02-27 18:00:00 NR -9.56247 -173.557 main 445 430 __________P___ -1 -9.56247 -173.557 2 4 139
1941057S08185 1941 14 SP MM NOT_NAMED 1941-02-27 21:00:00 NR -9.71404 -173.432 main 430 406 __________P___ -1 -9.71404 -173.432 2 4 143
1941057S08185 1941 14 SP MM NOT_NAMED 1941-02-28 00:00:00 NR -9.90000 -173.300 main 406 383 __________O___ -1 -9.90000 -173.300 2 5 148
1941057S08185 1941 14 SP MM NOT_NAMED 1941-02-28 03:00:00 NR -10.1472 -173.157 main 383 347 __________P___ -1 -10.1472 -173.157 2 6 151
1941057S08185 1941 14 SP MM NOT_NAMED 1941-02-28 06:00:00 NR -10.4275 -173.008 main 347 313 __________P___ -1 -10.4275 -173.008 2 6 152
1941057S08185 1941 14 SP MM NOT_NAMED 1941-02-28 09:00:00 NR -10.7191 -172.854 main 313 279 __________P___ -1 -10.7191 -172.854 2 7 152
1941057S08185 1941 14 SP MM NOT_NAMED 1941-02-28 12:00:00 NR -11.0000 -172.700 main 279 257 __________O___ -1 -11.0000 -172.700 2 6 149
1941057S08185 1941 14 SP MM NOT_NAMED 1941-02-28 15:00:00 NR -11.2150 -172.546 main 257 235 __________P___ -1 -11.2150 -172.546 2 5 144
1941057S08185 1941 14 SP MM NOT_NAMED 1941-02-28 18:00:00 NR -11.4200 -172.392 main 235 213 __________P___ -1 -11.4200 -172.392 2 5 145
1941057S08185 1941 14 SP MM NOT_NAMED 1941-02-28 21:00:00 NR -11.6400 -172.243 main 213 182 __________P___ -1 -11.6400 -172.243 2 6 149
1941057S08185 1941 14 SP MM NOT_NAMED 1941-03-01 00:00:00 NR -11.9000 -172.100 main 182 151 __________O___ -1 -11.9000 -172.100 2 7 156
1941057S08185 1941 14 SP MM NOT_NAMED 1941-03-01 03:00:00 NR -12.2400 -171.968 main 151 114 __________P___ -1 -12.2400 -171.968 2 8 161
1941057S08185 1941 14 SP MM NOT_NAMED 1941-03-01 06:00:00 NR -12.6200 -171.842 main 119 93 __________P___ -1 -12.6200 -171.842 2 8 163
1941057S08185 1941 14 SP MM NOT_NAMED 1941-03-01 09:00:00 NR -13.0150 -171.721 main 93 73 __________P___ -1 -13.0150 -171.721 2 8 163
1941057S08185 1941 14 SP MM NOT_NAMED 1941-03-01 12:00:00 NR -13.4000 -171.600 main 73 68 __________O___ -1 -13.4000 -171.600 2 8 161
1941057S08185 1941 14 SP MM NOT_NAMED 1941-03-01 15:00:00 NR -13.7272 -171.475 main 75 75 __________P___ -1 -13.7272 -171.475 2 7 159
1941057S08185 1941 14 SP MM NOT_NAMED 1941-03-01 18:00:00 NR -14.0425 -171.350 main 99 99 __________P___ -1 -14.0425 -171.350 2 7 159
1941057S08185 1941 14 SP MM NOT_NAMED 1941-03-01 21:00:00 NR -14.3615 -171.225 main 127 127 __________P___ -1 -14.3615 -171.225 2 7 160
1941057S08185 1941 14 SP MM NOT_NAMED 1941-03-02 00:00:00 NR -14.7000 -171.100 main 155 155 __________O___ -1 -14.7000 -171.100 2 8 162
1941057S08185 1941 14 SP MM NOT_NAMED 1941-03-02 03:00:00 NR -15.1028 -170.979 main 194 194 __________P___ -1 -15.1028 -170.979 2 9 164
1941057S08185 1941 14 SP MM NOT_NAMED 1941-03-02 06:00:00 NR -15.5224 -170.857 main 236 236 __________P___ -1 -15.5224 -170.857 2 9 164
1941057S08185 1941 14 SP MM NOT_NAMED 1941-03-02 09:00:00 NR -15.9309 -170.732 main 285 285 __________P___ -1 -15.9309 -170.732 2 8 162
1941057S08185 1941 14 SP MM NOT_NAMED 1941-03-02 12:00:00 NR -16.3000 -170.600 main 328 328 __________O___ -1 -16.3000 -170.600 2 7 158
1941057S08185 1941 14 SP MM NOT_NAMED 1941-03-02 15:00:00 NR -16.5524 -170.473 main 362 362 __________P___ -1 -16.5524 -170.473 2 5 152
1941057S08185 1941 14 SP MM NOT_NAMED 1941-03-02 18:00:00 NR -16.7698 -170.336 main 392 392 __________P___ -1 -16.7698 -170.336 2 5 148
1941057S08185 1941 14 SP MM NOT_NAMED 1941-03-02 21:00:00 NR -17.0024 -170.182 main 417 417 __________P___ -1 -17.0024 -170.182 2 6 149
1941057S08185 1941 14 SP MM NOT_NAMED 1941-03-03 00:00:00 NR -17.3000 -170.000 main 457 457 __________O___ -1 -17.3000 -170.000 2 8 153
1941057S08185 1941 14 SP MM NOT_NAMED 1941-03-03 03:00:00 NR -17.7565 -169.787 main 516 516 __________P___ -1 -17.7565 -169.787 2 11 156
1941057S08185 1941 14 SP MM NOT_NAMED 1941-03-03 06:00:00 NR -18.2775 -169.546 main 580 580 __________P___ -1 -18.2775 -169.546 2 12 155
1941057S08185 1941 14 SP MM NOT_NAMED 1941-03-03 09:00:00 NR -18.8097 -169.281 main 639 639 __________P___ -1 -18.8097 -169.281 2 12 153
1941057S08185 1941 14 SP MM NOT_NAMED 1941-03-03 12:00:00 NR -19.3000 -169.000 main 703 703 __________O___ -1 -19.3000 -169.000 2 9 152
1941057S08185 1941 14 SP MM NOT_NAMED 1941-03-03 15:00:00 NR -19.6286 -168.816 main 743 743 __________P___ -1 -19.6286 -168.816 2 7 149
1941057S08185 1941 14 SP MM NOT_NAMED 1941-03-03 18:00:00 NR -19.9165 -168.604 main 782 782 __________P___ -1 -19.9165 -168.604 2 8 140
1941057S08185 1941 14 SP MM NOT_NAMED 1941-03-03 21:00:00 NR -20.2213 -168.290 main 827 827 __________P___ -1 -20.2213 -168.290 2 10 132
1941057S08185 1941 14 SP MM NOT_NAMED 1941-03-04 00:00:00 NR -20.6000 -167.800 main 892 892 __________O___ -1 -20.6000 -167.800 2 15 129
1941057S08185 1941 14 SP MM NOT_NAMED 1941-03-04 03:00:00 NR -21.1634 -167.049 main 994 994 __________P___ -1 -21.1634 -167.049 2 20 127
1941057S08185 1941 14 SP MM NOT_NAMED 1941-03-04 06:00:00 NR -21.7950 -166.115 main 1103 1103 __________P___ -1 -21.7950 -166.115 2 22 125
1941057S08185 1941 14 SP MM NOT_NAMED 1941-03-04 09:00:00 NR -22.4287 -165.073 main 1219 1219 __________P___ -1 -22.4287 -165.073 2 23 122
1941057S08185 1941 14 SP MM NOT_NAMED 1941-03-04 12:00:00 NR -23.0000 -164.000 main 1343 1343 __________O___ -1 -23.0000 -164.000 2 21 118
1941057S08185 1941 14 SP MM NOT_NAMED 1941-03-04 15:00:00 NR -23.4184 -163.050 main 1438 1438 __________P___ -1 -23.4184 -163.050 2 19 114
1941057S08185 1941 14 SP MM NOT_NAMED 1941-03-04 18:00:00 NR -23.7698 -162.083 main 1541 1541 __________P___ -1 -23.7698 -162.083 2 19 110
1941057S08185 1941 14 SP MM NOT_NAMED 1941-03-04 21:00:00 NR -24.0864 -161.075 main 1638 1638 __________P___ -1 -24.0864 -161.075 2 20 108
1941057S08185 1941 14 SP MM NOT_NAMED 1941-03-05 00:00:00 NR -24.4000 -160.000 main 1744 1744 __________O___ -1 -24.4000 -160.000 2 22 108
1941057S08185 1941 14 SP MM NOT_NAMED 1941-03-05 03:00:00 NR -24.7497 -158.821 main 1859 1859 __________P___ -1 -24.7497 -158.821 2 23 108
1941057S08185 1941 14 SP MM NOT_NAMED 1941-03-05 06:00:00 NR -25.0994 -157.573 main 1982 1982 __________P___ -1 -25.0994 -157.573 2 24 107
1941057S08185 1941 14 SP MM NOT_NAMED 1941-03-05 09:00:00 NR -25.4492 -156.289 main 2107 2107 __________P___ -1 -25.4492 -156.289 2 24 107
1941057S08185 1941 14 SP MM NOT_NAMED 1941-03-05 12:00:00 NR -25.8000 -155.000 main 2240 2240 __________O___ -1 -25.8000 -155.000 2 24 107
1941057S08185 1941 14 SP MM NOT_NAMED 1941-03-05 15:00:00 NR -26.1531 -153.732 main 2373 2373 __________P___ -1 -26.1531 -153.732 2 24 107
1941057S08185 1941 14 SP MM NOT_NAMED 1941-03-05 18:00:00 NR -26.5065 -152.481 main 2493 2493 __________P___ -1 -26.5065 -152.481 2 23 108
1941057S08185 1941 14 SP MM NOT_NAMED 1941-03-05 21:00:00 NR -26.8567 -151.240 main 2627 2627 __________P___ -1 -26.8567 -151.240 2 23 107
1941057S08185 1941 14 SP MM NOT_NAMED 1941-03-06 00:00:00 NR -27.2000 -150.000 main 2747 __________O___ -1 -27.2000 -150.000 2 23 107

デジタル台風データ・検索

IBTrACS Databaseについて

本データベースは、米国NOAAが公開する1842年以降の世界の熱帯低気圧のベストトラックデータアーカイブInternational Best Track Archive for Climate Stewardship (IBTrACS)を、ウェブで閲覧しやすい形式に変換したものです。

最終更新日:2021-10-08